createdAt,value
2023-04-15T00:01:06.270Z,9.28
2023-04-15T00:03:34.639Z,9.28
2023-04-15T00:06:01.692Z,9.11
2023-04-15T00:08:28.866Z,9.06
2023-04-15T00:10:55.886Z,9.18
2023-04-15T00:13:22.486Z,9.19
2023-04-15T00:15:49.239Z,9.18
2023-04-15T00:18:17.391Z,9.12
2023-04-15T00:20:43.962Z,9.16
2023-04-15T00:23:10.929Z,9.04
2023-04-15T00:25:37.663Z,9.05
2023-04-15T00:28:04.345Z,9.11
2023-04-15T00:30:31.499Z,9.09
2023-04-15T00:32:58.258Z,9.09
2023-04-15T00:35:25.506Z,9.05
2023-04-15T00:37:52.083Z,9.08
2023-04-15T00:40:22.005Z,8.98
2023-04-15T00:42:48.856Z,8.97
2023-04-15T00:45:15.755Z,9.06
2023-04-15T00:47:45.682Z,8.94
2023-04-15T00:50:12.980Z,8.97
2023-04-15T00:52:41.126Z,8.91
2023-04-15T00:55:09.061Z,8.82
2023-04-15T00:57:36.701Z,8.80
2023-04-15T01:00:05.987Z,8.80
2023-04-15T01:02:33.324Z,8.79
2023-04-15T01:05:00.502Z,8.88
2023-04-15T01:07:27.491Z,8.82
2023-04-15T01:09:54.222Z,8.72
2023-04-15T01:12:21.212Z,8.71
2023-04-15T01:14:50.444Z,8.65
2023-04-15T01:17:18.117Z,8.62
2023-04-15T01:19:44.699Z,8.59
2023-04-15T01:22:12.932Z,8.65
2023-04-15T01:24:39.871Z,8.47
2023-04-15T01:27:06.582Z,8.43
2023-04-15T01:29:38.325Z,8.40
2023-04-15T01:32:05.678Z,8.48
2023-04-15T01:34:51.421Z,8.37
2023-04-15T01:37:38.285Z,8.42
2023-04-15T01:40:05.374Z,8.50
2023-04-15T01:42:33.760Z,8.43
2023-04-15T01:45:02.070Z,8.40
2023-04-15T01:47:30.424Z,8.36
2023-04-15T01:49:58.272Z,8.41
2023-04-15T01:52:28.842Z,8.31
2023-04-15T01:54:56.581Z,8.46
2023-04-15T01:57:24.313Z,8.52
2023-04-15T01:59:52.331Z,8.52
2023-04-15T02:02:20.423Z,8.50
2023-04-15T02:04:48.504Z,8.45
2023-04-15T02:07:16.488Z,8.41
2023-04-15T02:09:46.207Z,8.52
2023-04-15T02:12:14.031Z,8.44
2023-04-15T02:14:43.699Z,8.40
2023-04-15T02:17:11.961Z,8.39
2023-04-15T02:19:40.510Z,8.39
2023-04-15T02:22:09.299Z,8.31
2023-04-15T02:24:37.067Z,8.39
2023-04-15T02:27:04.780Z,8.31
2023-04-15T02:29:33.106Z,8.32
2023-04-15T02:32:01.804Z,8.36
2023-04-15T02:34:29.672Z,8.38
2023-04-15T02:36:58.001Z,8.37
2023-04-15T02:39:27.538Z,8.10
2023-04-15T02:41:56.845Z,8.25
2023-04-15T02:44:25.822Z,8.22
2023-04-15T02:46:54.971Z,8.19
2023-04-15T02:49:22.960Z,8.21
2023-04-15T02:51:51.512Z,8.07
2023-04-15T02:54:20.844Z,7.99
2023-04-15T02:56:48.953Z,8.15
2023-04-15T02:59:16.769Z,8.01
2023-04-15T03:01:45.570Z,7.95
2023-04-15T03:04:14.261Z,7.93
2023-04-15T03:06:42.575Z,7.89
2023-04-15T03:09:10.416Z,7.92
2023-04-15T03:11:41.095Z,7.95
2023-04-15T03:14:09.345Z,7.82
2023-04-15T03:16:40.030Z,7.69
2023-04-15T03:19:08.098Z,7.76
2023-04-15T03:21:36.106Z,7.73
2023-04-15T03:24:03.869Z,7.69
2023-04-15T03:26:32.401Z,7.62
2023-04-15T03:29:01.231Z,7.62
2023-04-15T03:31:29.329Z,7.70
2023-04-15T03:33:57.339Z,7.67
2023-04-15T03:36:26.057Z,7.73
2023-04-15T03:38:54.018Z,7.67
2023-04-15T03:41:24.005Z,7.64
2023-04-15T03:43:52.243Z,7.59
2023-04-15T03:46:20.243Z,7.50
2023-04-15T03:48:48.609Z,7.49
2023-04-15T03:51:16.565Z,7.65
2023-04-15T03:53:44.329Z,7.46
2023-04-15T03:56:12.294Z,7.58
2023-04-15T03:58:40.469Z,7.49
2023-04-15T04:01:11.283Z,7.60
2023-04-15T04:03:40.918Z,7.47
2023-04-15T04:06:09.281Z,7.53
2023-04-15T04:08:37.777Z,7.38
2023-04-15T04:11:05.792Z,7.50
2023-04-15T04:13:34.813Z,7.57
2023-04-15T04:16:04.766Z,7.59
2023-04-15T04:18:33.537Z,7.35
2023-04-15T04:21:01.724Z,7.35
2023-04-15T04:23:29.622Z,7.37
2023-04-15T04:25:58.708Z,7.44
2023-04-15T04:28:27.043Z,7.50
2023-04-15T04:30:54.904Z,7.51
2023-04-15T04:33:23.057Z,7.50
2023-04-15T04:35:50.891Z,7.47
2023-04-15T04:38:18.848Z,7.45
2023-04-15T04:40:46.712Z,7.61
2023-04-15T04:43:15.935Z,7.45
2023-04-15T04:45:43.975Z,7.39
2023-04-15T04:48:11.803Z,7.63
2023-04-15T04:50:40.075Z,7.50
2023-04-15T04:53:08.097Z,7.43
2023-04-15T04:55:37.081Z,7.31
2023-04-15T04:58:04.992Z,7.63
2023-04-15T05:00:33.005Z,7.73
2023-04-15T05:03:01.172Z,7.76
2023-04-15T05:05:28.996Z,7.70
2023-04-15T05:07:56.849Z,7.65
2023-04-15T05:10:25.003Z,7.71
2023-04-15T05:12:52.844Z,7.74
2023-04-15T05:15:20.672Z,8.07
2023-04-15T05:17:48.956Z,8.04
2023-04-15T05:20:17.095Z,8.11
2023-04-15T05:22:45.317Z,8.19
2023-04-15T05:25:13.811Z,8.19
2023-04-15T05:27:42.082Z,8.24
2023-04-15T05:30:12.097Z,8.12
2023-04-15T05:32:41.892Z,8.31
2023-04-15T05:35:09.931Z,8.34
2023-04-15T05:37:37.704Z,8.47
2023-04-15T05:40:06.241Z,8.52
2023-04-15T05:42:35.256Z,8.67
2023-04-15T05:45:05.524Z,8.70
2023-04-15T05:47:33.492Z,8.76
2023-04-15T05:50:01.766Z,8.81
2023-04-15T05:52:30.046Z,8.76
2023-04-15T05:54:57.999Z,8.89
2023-04-15T05:57:26.224Z,8.84
2023-04-15T05:59:54.493Z,8.88
2023-04-15T06:02:22.418Z,8.97
2023-04-15T06:04:50.460Z,9.12
2023-04-15T06:07:18.850Z,8.95
2023-04-15T06:09:47.385Z,9.46
2023-04-15T06:12:17.011Z,9.41
2023-04-15T06:14:44.729Z,9.48
2023-04-15T06:17:14.892Z,9.60
2023-04-15T06:19:42.808Z,9.76
2023-04-15T06:22:10.781Z,9.63
2023-04-15T06:24:38.602Z,9.93
2023-04-15T06:27:06.534Z,9.97
2023-04-15T06:29:34.341Z,10.16
2023-04-15T06:32:03.832Z,10.32
2023-04-15T06:34:31.795Z,10.14
2023-04-15T06:37:01.428Z,10.11
2023-04-15T06:39:30.523Z,10.23
2023-04-15T06:41:58.279Z,10.73
2023-04-15T06:44:26.202Z,10.61
2023-04-15T06:46:54.145Z,10.90
2023-04-15T06:49:22.065Z,10.60
2023-04-15T06:51:51.514Z,10.88
2023-04-15T06:54:19.543Z,10.78
2023-04-15T06:56:48.955Z,11.29
2023-04-15T06:59:17.083Z,11.03
2023-04-15T07:01:45.010Z,11.32
2023-04-15T07:04:13.577Z,11.45
2023-04-15T07:06:42.041Z,11.89
2023-04-15T07:09:10.253Z,11.58
2023-04-15T07:11:39.609Z,11.92
2023-04-15T07:14:07.379Z,12.39
2023-04-15T07:16:35.560Z,12.17
2023-04-15T07:19:03.990Z,12.17
2023-04-15T07:21:33.259Z,12.72
2023-04-15T07:24:01.417Z,12.35
2023-04-15T07:26:31.330Z,12.52
2023-04-15T07:29:01.498Z,12.45
2023-04-15T07:31:29.585Z,12.20
2023-04-15T07:33:58.622Z,12.33
2023-04-15T07:36:27.150Z,12.17
2023-04-15T07:38:55.622Z,12.29
2023-04-15T07:41:23.889Z,12.59
2023-04-15T07:43:51.832Z,12.51
2023-04-15T07:46:19.886Z,12.40
2023-04-15T07:48:47.789Z,12.75
2023-04-15T07:51:15.850Z,12.55
2023-04-15T07:53:44.903Z,12.51
2023-04-15T07:56:13.170Z,12.76
2023-04-15T07:58:41.719Z,12.62
2023-04-15T08:01:09.638Z,12.85
2023-04-15T08:03:37.837Z,12.76
2023-04-15T08:06:05.827Z,12.53
2023-04-15T08:08:33.612Z,12.95
2023-04-15T08:11:01.426Z,13.03
2023-04-15T08:13:29.512Z,12.80
2023-04-15T08:16:24.808Z,12.64
2023-04-15T08:18:55.858Z,13.25
2023-04-15T08:21:24.554Z,13.52
2023-04-15T08:23:53.609Z,13.32
2023-04-15T08:26:21.911Z,13.39
2023-04-15T08:28:49.814Z,13.77
2023-04-15T08:31:18.993Z,14.15
2023-04-15T08:33:46.916Z,14.57
2023-04-15T08:36:14.896Z,14.62
2023-04-15T08:38:44.818Z,14.60
2023-04-15T08:41:18.197Z,15.18
2023-04-15T08:44:02.027Z,15.21
2023-04-15T08:46:37.579Z,15.84
2023-04-15T08:49:09.822Z,15.10
2023-04-15T08:51:43.172Z,15.61
2023-04-15T08:54:11.210Z,15.63
2023-04-15T08:56:39.577Z,15.85
2023-04-15T08:59:07.627Z,15.60
2023-04-15T09:01:37.461Z,15.28
2023-04-15T09:04:08.339Z,15.52
2023-04-15T09:06:36.351Z,14.92
2023-04-15T09:09:04.212Z,15.40
2023-04-15T09:11:32.149Z,14.52
2023-04-15T09:13:59.906Z,14.56
2023-04-15T09:16:28.485Z,14.58
2023-04-15T09:18:57.930Z,15.22
2023-04-15T09:21:26.152Z,14.17
2023-04-15T09:24:02.526Z,14.28
2023-04-15T09:26:32.545Z,14.16
2023-04-15T09:29:09.434Z,13.81
2023-04-15T09:31:37.866Z,14.02
2023-04-15T09:34:06.980Z,13.81
2023-04-15T09:36:49.163Z,14.18
2023-04-15T09:39:18.328Z,14.02
2023-04-15T09:41:46.424Z,14.19
2023-04-15T09:44:28.169Z,14.36
2023-04-15T09:46:55.948Z,13.78
2023-04-15T09:49:23.819Z,13.82
2023-04-15T09:52:05.152Z,13.79
2023-04-15T09:54:36.608Z,13.41
2023-04-15T09:57:11.002Z,13.18
2023-04-15T09:59:38.834Z,13.11
2023-04-15T10:02:09.506Z,13.15
2023-04-15T10:04:40.619Z,13.05
2023-04-15T10:07:12.553Z,12.80
2023-04-15T10:09:41.463Z,12.97
2023-04-15T10:12:09.412Z,13.32
2023-04-15T10:14:38.866Z,13.30
2023-04-15T10:17:11.485Z,13.65
2023-04-15T10:19:40.513Z,13.98
2023-04-15T10:22:09.497Z,13.57
2023-04-15T10:24:39.034Z,14.30
2023-04-15T10:27:07.500Z,14.17
2023-04-15T10:29:36.401Z,14.17
2023-04-15T10:32:04.774Z,14.54
2023-04-15T10:34:32.812Z,14.89
2023-04-15T10:37:04.703Z,14.84
2023-04-15T10:39:42.058Z,14.93
2023-04-15T10:42:13.286Z,15.42
2023-04-15T10:44:55.826Z,15.81
2023-04-15T10:47:23.973Z,15.19
2023-04-15T10:49:59.244Z,14.97
2023-04-15T10:52:29.406Z,14.54
2023-04-15T10:55:20.754Z,14.59
2023-04-15T10:57:58.084Z,14.82
2023-04-15T11:00:28.471Z,14.66
2023-04-15T11:02:57.605Z,14.45
2023-04-15T11:05:49.343Z,14.14
2023-04-15T11:08:17.176Z,14.21
2023-04-15T11:10:47.072Z,14.27
2023-04-15T11:13:17.362Z,14.49
2023-04-15T11:15:46.443Z,14.38
2023-04-15T11:18:28.495Z,13.91
2023-04-15T11:20:59.658Z,14.34
2023-04-15T11:23:48.451Z,13.75
2023-04-15T11:26:16.355Z,13.91
2023-04-15T11:28:45.959Z,14.19
2023-04-15T11:31:16.853Z,13.72
2023-04-15T11:33:55.775Z,13.72
2023-04-15T11:36:29.498Z,13.45
2023-04-15T11:38:59.931Z,13.92
2023-04-15T11:41:27.979Z,13.61
2023-04-15T11:43:56.126Z,13.57
2023-04-15T11:46:31.378Z,13.34
2023-04-15T11:49:00.333Z,13.30
2023-04-15T11:51:32.594Z,13.34
2023-04-15T11:53:59.170Z,13.56
2023-04-15T11:56:29.169Z,13.30
2023-04-15T11:58:58.740Z,13.56
2023-04-15T12:01:52.577Z,13.38
2023-04-15T12:04:24.892Z,13.20
2023-04-15T12:06:52.458Z,13.23
2023-04-15T12:09:20.550Z,13.39
2023-04-15T12:11:53.975Z,13.39
2023-04-15T12:14:28.896Z,13.56
2023-04-15T12:17:00.725Z,13.21
2023-04-15T12:19:35.744Z,13.57
2023-04-15T12:22:04.459Z,12.74
2023-04-15T12:24:35.936Z,12.87
2023-04-15T12:27:13.384Z,12.89
2023-04-15T12:29:41.848Z,12.96
2023-04-15T12:32:16.891Z,13.15
2023-04-15T12:34:49.994Z,13.25
2023-04-15T12:37:20.380Z,13.36
2023-04-15T12:39:51.848Z,13.36
2023-04-15T12:42:18.820Z,13.22
2023-04-15T12:44:46.957Z,13.19
2023-04-15T12:47:14.175Z,13.11
2023-04-15T12:49:41.246Z,13.12
2023-04-15T12:52:08.349Z,12.85
2023-04-15T12:54:36.068Z,12.89
2023-04-15T12:57:05.537Z,12.86
2023-04-15T12:59:33.532Z,12.65
2023-04-15T13:02:01.195Z,12.62
2023-04-15T13:04:30.797Z,12.87
2023-04-15T13:06:57.984Z,12.56
2023-04-15T13:09:26.377Z,12.52
2023-04-15T13:11:54.734Z,12.33
2023-04-15T13:14:22.704Z,12.85
2023-04-15T13:16:49.413Z,12.73
2023-04-15T13:19:16.054Z,12.75
2023-04-15T13:21:42.861Z,12.89
2023-04-15T13:24:09.903Z,11.86
2023-04-15T13:26:37.456Z,12.64
2023-04-15T13:29:04.044Z,12.51
2023-04-15T13:31:30.634Z,12.73
2023-04-15T13:33:57.301Z,12.70
2023-04-15T13:36:24.118Z,12.66
2023-04-15T13:38:51.546Z,12.36
2023-04-15T13:41:18.551Z,12.34
2023-04-15T13:43:45.146Z,12.33
2023-04-15T13:46:12.081Z,12.27
2023-04-15T13:48:39.287Z,12.37
2023-04-15T13:51:06.075Z,12.09
2023-04-15T13:53:38.555Z,12.32
2023-04-15T13:56:09.584Z,12.36
2023-04-15T13:58:38.494Z,12.27
2023-04-15T14:01:07.086Z,11.86
2023-04-15T14:03:38.660Z,12.27
2023-04-15T14:06:07.170Z,12.31
2023-04-15T14:08:33.842Z,12.19
2023-04-15T14:11:00.577Z,12.47
2023-04-15T14:13:27.188Z,12.39
2023-04-15T14:15:54.047Z,12.31
2023-04-15T14:18:21.451Z,12.61
2023-04-15T14:20:48.088Z,12.46
2023-04-15T14:23:14.824Z,12.59
2023-04-15T14:25:41.646Z,12.25
2023-04-15T14:28:08.311Z,12.28
2023-04-15T14:30:35.328Z,12.34
2023-04-15T14:33:06.352Z,12.43
2023-04-15T14:35:32.940Z,12.44
2023-04-15T14:37:59.558Z,12.25
2023-04-15T14:40:27.399Z,12.03
2023-04-15T14:42:54.158Z,11.95
2023-04-15T14:45:20.833Z,12.16
2023-04-15T14:47:47.580Z,12.32
2023-04-15T14:50:14.237Z,12.28
2023-04-15T14:52:41.135Z,12.05
2023-04-15T14:55:11.739Z,11.70
2023-04-15T14:57:39.148Z,12.07
2023-04-15T15:00:07.542Z,12.20
2023-04-15T15:02:38.899Z,11.73
2023-04-15T15:05:06.508Z,11.78
2023-04-15T15:07:34.212Z,11.98
2023-04-15T15:10:00.826Z,11.76
2023-04-15T15:12:27.572Z,11.82
2023-04-15T15:14:55.713Z,12.03
2023-04-15T15:17:22.816Z,11.96
2023-04-15T15:19:49.561Z,11.89
2023-04-15T15:22:16.310Z,11.64
2023-04-15T15:24:43.001Z,11.68
2023-04-15T15:27:09.997Z,11.50
2023-04-15T15:29:38.119Z,11.70
2023-04-15T15:32:04.932Z,11.67
2023-04-15T15:34:31.741Z,11.63
2023-04-15T15:36:58.272Z,11.58
2023-04-15T15:39:25.605Z,11.55
2023-04-15T15:41:52.717Z,11.52
2023-04-15T15:44:19.330Z,11.69
2023-04-15T15:46:46.249Z,11.51
2023-04-15T15:49:13.107Z,11.53
2023-04-15T15:51:39.681Z,11.63
2023-04-15T15:54:06.482Z,11.79
2023-04-15T15:56:34.483Z,11.63
2023-04-15T15:59:01.019Z,11.55
2023-04-15T16:01:27.721Z,11.63
2023-04-15T16:03:54.727Z,11.67
2023-04-15T16:06:21.486Z,11.73
2023-04-15T16:08:48.329Z,11.80
2023-04-15T16:11:15.005Z,11.69
2023-04-15T16:13:42.043Z,11.57
2023-04-15T16:16:08.711Z,11.60
2023-04-15T16:18:35.544Z,11.52
2023-04-15T16:21:02.356Z,11.49
2023-04-15T16:23:29.019Z,11.43
2023-04-15T16:25:55.796Z,11.37
2023-04-15T16:28:26.927Z,11.57
2023-04-15T16:30:54.676Z,11.58
2023-04-15T16:33:21.377Z,11.68
2023-04-15T16:35:48.149Z,11.34
2023-04-15T16:38:14.729Z,11.62
2023-04-15T16:40:41.343Z,11.33
2023-04-15T16:43:11.019Z,11.65
2023-04-15T16:45:37.828Z,11.53
2023-04-15T16:48:05.011Z,11.52
2023-04-15T16:50:32.004Z,11.59
2023-04-15T16:52:58.572Z,11.73
2023-04-15T16:55:28.501Z,11.52
2023-04-15T16:58:03.171Z,11.57
2023-04-15T17:00:31.721Z,11.15
2023-04-15T17:02:59.226Z,11.47
2023-04-15T17:05:29.291Z,11.24
2023-04-15T17:07:55.817Z,11.32
2023-04-15T17:10:22.711Z,11.29
2023-04-15T17:12:52.303Z,11.36
2023-04-15T17:15:20.253Z,11.58
2023-04-15T17:17:53.568Z,11.54
2023-04-15T17:20:20.678Z,11.68
2023-04-15T17:22:49.318Z,11.54
2023-04-15T17:25:16.213Z,11.58
2023-04-15T17:27:46.825Z,11.66
2023-04-15T17:30:19.512Z,11.63
2023-04-15T17:33:54.031Z,11.55
2023-04-15T17:36:13.091Z,11.46
2023-04-15T17:38:59.585Z,11.54
2023-04-15T17:41:47.166Z,11.42
2023-04-15T17:44:33.933Z,11.64
2023-04-15T17:47:20.598Z,11.56
2023-04-15T17:50:07.927Z,11.45
2023-04-15T17:52:54.509Z,11.63
2023-04-15T17:55:41.043Z,11.32
2023-04-15T17:58:28.284Z,11.24
2023-04-15T18:01:14.911Z,11.65
2023-04-15T18:04:01.479Z,11.51
2023-04-15T18:06:48.439Z,11.42
2023-04-15T18:09:35.333Z,11.41
2023-04-15T18:12:22.006Z,10.98
2023-04-15T18:15:09.817Z,10.99
2023-04-15T18:18:00.498Z,11.14
2023-04-15T18:20:27.851Z,11.29
2023-04-15T18:22:54.609Z,11.10
2023-04-15T18:25:23.625Z,10.97
2023-04-15T18:27:50.971Z,11.25
2023-04-15T18:30:17.487Z,11.42
2023-04-15T18:32:45.544Z,11.46
2023-04-15T18:35:12.202Z,11.29
2023-04-15T18:37:38.799Z,11.37
2023-04-15T18:40:07.220Z,11.63
2023-04-15T18:42:33.843Z,11.41
2023-04-15T18:45:00.626Z,11.58
2023-04-15T18:47:27.846Z,11.55
2023-04-15T18:49:54.534Z,11.51
2023-04-15T18:52:21.710Z,11.58
2023-04-15T18:54:49.007Z,11.64
2023-04-15T18:57:16.688Z,11.68
2023-04-15T18:59:51.602Z,11.40
2023-04-15T19:02:19.180Z,11.55
2023-04-15T19:04:45.771Z,11.74
2023-04-15T19:07:12.842Z,11.65
2023-04-15T19:09:39.485Z,11.51
2023-04-15T19:12:06.460Z,11.59
2023-04-15T19:14:33.436Z,11.42
2023-04-15T19:17:00.112Z,11.37
2023-04-15T19:19:29.379Z,11.35
2023-04-15T19:21:58.303Z,11.43
2023-04-15T19:24:24.866Z,11.46
2023-04-15T19:26:51.642Z,11.52
2023-04-15T19:29:18.891Z,11.40
2023-04-15T19:31:45.935Z,11.41
2023-04-15T19:34:12.489Z,11.32
2023-04-15T19:36:39.136Z,11.07
2023-04-15T19:39:06.372Z,11.47
2023-04-15T19:41:33.346Z,11.56
2023-04-15T19:44:01.071Z,11.68
2023-04-15T19:46:27.930Z,11.67
2023-04-15T19:48:55.285Z,11.65
2023-04-15T19:51:22.534Z,11.44
2023-04-15T19:53:56.447Z,11.65
2023-04-15T19:56:24.055Z,11.50
2023-04-15T19:58:53.114Z,11.58
2023-04-15T20:01:20.646Z,11.83
2023-04-15T20:03:47.500Z,11.70
2023-04-15T20:06:15.596Z,11.66
2023-04-15T20:08:42.272Z,11.85
2023-04-15T20:11:09.677Z,11.55
2023-04-15T20:13:36.806Z,11.69
2023-04-15T20:16:04.186Z,11.86
2023-04-15T20:18:30.996Z,11.53
2023-04-15T20:20:57.588Z,11.55
2023-04-15T20:23:24.504Z,11.85
2023-04-15T20:25:51.822Z,11.91
2023-04-15T20:28:19.231Z,11.74
2023-04-15T20:30:47.226Z,11.65
2023-04-15T20:33:14.296Z,11.58
2023-04-15T20:35:41.079Z,11.74
2023-04-15T20:38:07.864Z,11.64
2023-04-15T20:40:34.517Z,11.71
2023-04-15T20:43:01.201Z,11.19
2023-04-15T20:45:27.739Z,11.54
2023-04-15T20:47:56.346Z,11.28
2023-04-15T20:50:22.990Z,11.40
2023-04-15T20:52:49.516Z,11.59
2023-04-15T20:55:17.709Z,11.78
2023-04-15T20:57:44.197Z,11.50
2023-04-15T21:00:11.993Z,11.61
2023-04-15T21:02:38.695Z,11.59
2023-04-15T21:05:05.907Z,11.46
2023-04-15T21:07:32.600Z,11.53
2023-04-15T21:09:59.560Z,11.34
2023-04-15T21:12:26.521Z,11.51
2023-04-15T21:14:53.042Z,11.50
2023-04-15T21:17:19.623Z,11.43
2023-04-15T21:19:46.182Z,11.46
2023-04-15T21:22:14.427Z,11.50
2023-04-15T21:24:41.109Z,11.29
2023-04-15T21:27:07.880Z,11.32
2023-04-15T21:29:34.496Z,11.12
2023-04-15T21:32:01.285Z,11.23
2023-04-15T21:34:28.419Z,10.94
2023-04-15T21:36:55.104Z,11.27
2023-04-15T21:39:21.805Z,11.38
2023-04-15T21:41:48.664Z,11.16
2023-04-15T21:44:16.662Z,11.11
2023-04-15T21:46:46.148Z,11.16
2023-04-15T21:49:13.387Z,10.92
2023-04-15T21:51:39.997Z,11.09
2023-04-15T21:54:06.631Z,11.43
2023-04-15T21:56:33.545Z,11.14
2023-04-15T21:59:00.181Z,11.16
2023-04-15T22:01:26.931Z,10.88
2023-04-15T22:03:53.877Z,10.98
2023-04-15T22:06:21.014Z,10.96
2023-04-15T22:08:56.764Z,11.24
2023-04-15T22:11:28.371Z,10.71
2023-04-15T22:13:56.289Z,11.08
2023-04-15T22:16:23.233Z,10.96
2023-04-15T22:18:49.837Z,10.77
2023-04-15T22:21:16.626Z,10.55
2023-04-15T22:23:47.505Z,10.69
2023-04-15T22:26:14.366Z,11.07
2023-04-15T22:28:41.901Z,11.15
2023-04-15T22:31:11.890Z,10.86
2023-04-15T22:33:39.239Z,10.92
2023-04-15T22:36:06.146Z,10.63
2023-04-15T22:38:32.859Z,10.74
2023-04-15T22:41:00.474Z,11.00
2023-04-15T22:43:27.712Z,10.94
2023-04-15T22:45:55.312Z,11.29
2023-04-15T22:48:22.579Z,11.33
2023-04-15T22:50:49.463Z,11.07
2023-04-15T22:53:18.410Z,11.28
2023-04-15T22:55:47.525Z,11.30
2023-04-15T22:58:15.260Z,11.25
2023-04-15T23:00:42.187Z,11.25
2023-04-15T23:03:09.026Z,11.07
2023-04-15T23:05:36.075Z,11.27
2023-04-15T23:08:04.022Z,11.55
2023-04-15T23:10:30.936Z,11.34
2023-04-15T23:12:57.496Z,11.19
2023-04-15T23:15:24.199Z,11.42
2023-04-15T23:17:50.878Z,11.29
2023-04-15T23:20:17.686Z,11.51
2023-04-15T23:22:44.301Z,11.31
2023-04-15T23:25:10.884Z,11.27
2023-04-15T23:27:37.529Z,11.10
2023-04-15T23:30:04.590Z,11.60
2023-04-15T23:32:31.207Z,11.45
2023-04-15T23:34:57.821Z,11.23
2023-04-15T23:37:24.396Z,11.31
2023-04-15T23:39:51.039Z,11.11
2023-04-15T23:42:17.556Z,11.18
2023-04-15T23:44:44.889Z,10.97
2023-04-15T23:47:11.502Z,11.25
2023-04-15T23:49:43.199Z,11.22
2023-04-15T23:52:09.712Z,11.49
2023-04-15T23:54:36.197Z,11.16
2023-04-15T23:57:03.658Z,11.42
2023-04-15T23:59:30.230Z,11.07
